sensor_id;sensor_type;location;lat;lon;timestamp;P1;durP1;ratioP1;P2;durP2;ratioP2
77051;SDS011;65980;44.898;8.602;2022-12-29T00:02:21;105.63;;;46.70;;
77051;SDS011;65980;44.898;8.602;2022-12-29T00:05:26;102.90;;;43.88;;
77051;SDS011;65980;44.898;8.602;2022-12-29T00:12:09;103.05;;;44.83;;
77051;SDS011;65980;44.898;8.602;2022-12-29T00:18:42;102.05;;;45.88;;
77051;SDS011;65980;44.898;8.602;2022-12-29T00:21:47;85.90;;;40.38;;
77051;SDS011;65980;44.898;8.602;2022-12-29T00:25:10;94.28;;;40.60;;
77051;SDS011;65980;44.898;8.602;2022-12-29T00:28:35;89.60;;;40.55;;
77051;SDS011;65980;44.898;8.602;2022-12-29T00:32:09;90.95;;;40.08;;
77051;SDS011;65980;44.898;8.602;2022-12-29T00:35:45;80.47;;;38.45;;
77051;SDS011;65980;44.898;8.602;2022-12-29T00:39:33;75.80;;;36.78;;
77051;SDS011;65980;44.898;8.602;2022-12-29T00:43:00;75.40;;;36.97;;
77051;SDS011;65980;44.898;8.602;2022-12-29T00:46:32;85.22;;;40.03;;
77051;SDS011;65980;44.898;8.602;2022-12-29T00:50:00;88.40;;;41.28;;
77051;SDS011;65980;44.898;8.602;2022-12-29T00:53:24;86.85;;;39.38;;
77051;SDS011;65980;44.898;8.602;2022-12-29T00:56:33;92.30;;;43.42;;
77051;SDS011;65980;44.898;8.602;2022-12-29T00:59:48;99.38;;;42.80;;
77051;SDS011;65980;44.898;8.602;2022-12-29T01:03:17;90.80;;;42.25;;
77051;SDS011;65980;44.898;8.602;2022-12-29T01:07:02;94.90;;;42.97;;
77051;SDS011;65980;44.898;8.602;2022-12-29T01:10:39;99.82;;;44.40;;
77051;SDS011;65980;44.898;8.602;2022-12-29T01:13:50;95.07;;;41.90;;
77051;SDS011;65980;44.898;8.602;2022-12-29T01:17:05;87.65;;;43.20;;
77051;SDS011;65980;44.898;8.602;2022-12-29T01:20:39;93.70;;;44.58;;
77051;SDS011;65980;44.898;8.602;2022-12-29T01:27:37;97.70;;;44.47;;
77051;SDS011;65980;44.898;8.602;2022-12-29T01:31:24;86.95;;;41.78;;
77051;SDS011;65980;44.898;8.602;2022-12-29T01:34:44;87.57;;;40.97;;
77051;SDS011;65980;44.898;8.602;2022-12-29T01:38:53;87.60;;;39.15;;
77051;SDS011;65980;44.898;8.602;2022-12-29T01:42:23;81.68;;;38.80;;
77051;SDS011;65980;44.898;8.602;2022-12-29T01:49:37;92.88;;;39.70;;
77051;SDS011;65980;44.898;8.602;2022-12-29T01:53:38;92.03;;;38.95;;
77051;SDS011;65980;44.898;8.602;2022-12-29T02:00:53;86.57;;;40.22;;
77051;SDS011;65980;44.898;8.602;2022-12-29T02:08:16;98.05;;;43.25;;
77051;SDS011;65980;44.898;8.602;2022-12-29T02:11:45;87.32;;;41.10;;
77051;SDS011;65980;44.898;8.602;2022-12-29T02:15:15;90.25;;;40.33;;
77051;SDS011;65980;44.898;8.602;2022-12-29T02:23:42;86.85;;;41.40;;
77051;SDS011;65980;44.898;8.602;2022-12-29T02:38:51;94.03;;;41.42;;
77051;SDS011;65980;44.898;8.602;2022-12-29T02:46:04;81.78;;;39.13;;
77051;SDS011;65980;44.898;8.602;2022-12-29T02:49:48;78.70;;;38.65;;
77051;SDS011;65980;44.898;8.602;2022-12-29T02:53:02;85.25;;;37.92;;
77051;SDS011;65980;44.898;8.602;2022-12-29T02:56:11;84.25;;;41.13;;
77051;SDS011;65980;44.898;8.602;2022-12-29T02:59:16;88.40;;;42.58;;
77051;SDS011;65980;44.898;8.602;2022-12-29T03:12:25;86.30;;;40.20;;
77051;SDS011;65980;44.898;8.602;2022-12-29T03:15:55;85.60;;;41.22;;
77051;SDS011;65980;44.898;8.602;2022-12-29T03:19:25;74.07;;;36.42;;
77051;SDS011;65980;44.898;8.602;2022-12-29T03:22:41;85.22;;;40.28;;
77051;SDS011;65980;44.898;8.602;2022-12-29T03:25:52;76.65;;;37.38;;
77051;SDS011;65980;44.898;8.602;2022-12-29T03:29:00;77.05;;;36.72;;
77051;SDS011;65980;44.898;8.602;2022-12-29T03:32:06;75.53;;;37.25;;
77051;SDS011;65980;44.898;8.602;2022-12-29T03:35:15;70.95;;;35.92;;
77051;SDS011;65980;44.898;8.602;2022-12-29T03:38:25;80.50;;;37.38;;
77051;SDS011;65980;44.898;8.602;2022-12-29T03:41:35;85.45;;;38.15;;
77051;SDS011;65980;44.898;8.602;2022-12-29T03:44:42;71.68;;;35.22;;
77051;SDS011;65980;44.898;8.602;2022-12-29T03:47:50;75.03;;;35.67;;
77051;SDS011;65980;44.898;8.602;2022-12-29T03:50:57;75.95;;;35.50;;
77051;SDS011;65980;44.898;8.602;2022-12-29T03:54:02;69.05;;;34.42;;
77051;SDS011;65980;44.898;8.602;2022-12-29T03:57:07;74.40;;;35.00;;
77051;SDS011;65980;44.898;8.602;2022-12-29T04:00:47;73.03;;;35.15;;
77051;SDS011;65980;44.898;8.602;2022-12-29T04:03:52;69.13;;;34.55;;
77051;SDS011;65980;44.898;8.602;2022-12-29T04:06:57;71.40;;;34.65;;
77051;SDS011;65980;44.898;8.602;2022-12-29T04:10:02;73.90;;;37.05;;
77051;SDS011;65980;44.898;8.602;2022-12-29T04:13:09;76.38;;;36.95;;
77051;SDS011;65980;44.898;8.602;2022-12-29T04:16:14;70.35;;;35.55;;
77051;SDS011;65980;44.898;8.602;2022-12-29T04:19:19;74.10;;;36.17;;
77051;SDS011;65980;44.898;8.602;2022-12-29T04:22:25;72.78;;;37.05;;
77051;SDS011;65980;44.898;8.602;2022-12-29T04:25:31;80.05;;;38.95;;
77051;SDS011;65980;44.898;8.602;2022-12-29T04:28:37;70.50;;;35.55;;
77051;SDS011;65980;44.898;8.602;2022-12-29T04:32:08;72.35;;;35.70;;
77051;SDS011;65980;44.898;8.602;2022-12-29T04:35:17;73.95;;;35.08;;
77051;SDS011;65980;44.898;8.602;2022-12-29T04:38:22;79.25;;;35.78;;
77051;SDS011;65980;44.898;8.602;2022-12-29T04:41:31;75.63;;;36.28;;
77051;SDS011;65980;44.898;8.602;2022-12-29T04:44:36;77.97;;;36.90;;
77051;SDS011;65980;44.898;8.602;2022-12-29T04:47:48;74.40;;;34.75;;
77051;SDS011;65980;44.898;8.602;2022-12-29T04:51:28;74.88;;;33.95;;
77051;SDS011;65980;44.898;8.602;2022-12-29T04:54:32;73.07;;;35.83;;
77051;SDS011;65980;44.898;8.602;2022-12-29T04:57:47;72.60;;;34.58;;
77051;SDS011;65980;44.898;8.602;2022-12-29T05:00:55;66.18;;;32.97;;
77051;SDS011;65980;44.898;8.602;2022-12-29T05:04:02;73.18;;;35.25;;
77051;SDS011;65980;44.898;8.602;2022-12-29T05:07:07;73.57;;;33.83;;
77051;SDS011;65980;44.898;8.602;2022-12-29T05:10:12;76.03;;;34.90;;
77051;SDS011;65980;44.898;8.602;2022-12-29T05:13:17;74.28;;;34.58;;
77051;SDS011;65980;44.898;8.602;2022-12-29T05:16:22;70.00;;;34.60;;
77051;SDS011;65980;44.898;8.602;2022-12-29T05:19:26;69.72;;;34.50;;
77051;SDS011;65980;44.898;8.602;2022-12-29T05:22:31;66.68;;;32.92;;
77051;SDS011;65980;44.898;8.602;2022-12-29T05:25:36;75.05;;;35.63;;
77051;SDS011;65980;44.898;8.602;2022-12-29T05:28:53;71.35;;;36.03;;
77051;SDS011;65980;44.898;8.602;2022-12-29T05:31:57;63.55;;;34.97;;
77051;SDS011;65980;44.898;8.602;2022-12-29T05:35:02;69.78;;;34.13;;
77051;SDS011;65980;44.898;8.602;2022-12-29T05:41:47;71.22;;;32.72;;
77051;SDS011;65980;44.898;8.602;2022-12-29T05:45:24;72.70;;;32.95;;
77051;SDS011;65980;44.898;8.602;2022-12-29T05:48:44;64.28;;;32.83;;
77051;SDS011;65980;44.898;8.602;2022-12-29T05:52:07;71.32;;;35.03;;
77051;SDS011;65980;44.898;8.602;2022-12-29T05:55:13;71.35;;;34.00;;
77051;SDS011;65980;44.898;8.602;2022-12-29T05:58:25;72.72;;;34.70;;
77051;SDS011;65980;44.898;8.602;2022-12-29T06:01:56;70.70;;;34.30;;
77051;SDS011;65980;44.898;8.602;2022-12-29T06:05:11;73.72;;;36.75;;
77051;SDS011;65980;44.898;8.602;2022-12-29T06:08:58;74.63;;;36.42;;
77051;SDS011;65980;44.898;8.602;2022-12-29T06:15:42;68.65;;;35.75;;
77051;SDS011;65980;44.898;8.602;2022-12-29T06:18:48;69.30;;;34.28;;
77051;SDS011;65980;44.898;8.602;2022-12-29T06:21:53;70.47;;;35.40;;
77051;SDS011;65980;44.898;8.602;2022-12-29T06:25:06;79.80;;;35.28;;
77051;SDS011;65980;44.898;8.602;2022-12-29T06:28:31;67.93;;;34.17;;
77051;SDS011;65980;44.898;8.602;2022-12-29T06:31:53;71.38;;;32.97;;
77051;SDS011;65980;44.898;8.602;2022-12-29T06:35:08;72.70;;;34.58;;
77051;SDS011;65980;44.898;8.602;2022-12-29T06:38:20;75.35;;;36.53;;
77051;SDS011;65980;44.898;8.602;2022-12-29T06:41:24;78.93;;;35.88;;
77051;SDS011;65980;44.898;8.602;2022-12-29T06:45:07;69.10;;;33.10;;
77051;SDS011;65980;44.898;8.602;2022-12-29T06:48:12;72.68;;;35.17;;
77051;SDS011;65980;44.898;8.602;2022-12-29T06:51:21;66.90;;;34.90;;
77051;SDS011;65980;44.898;8.602;2022-12-29T06:54:28;63.83;;;32.35;;
77051;SDS011;65980;44.898;8.602;2022-12-29T06:57:32;66.15;;;32.90;;
77051;SDS011;65980;44.898;8.602;2022-12-29T07:00:36;70.82;;;33.65;;
77051;SDS011;65980;44.898;8.602;2022-12-29T07:07:40;66.57;;;32.92;;
77051;SDS011;65980;44.898;8.602;2022-12-29T07:10:45;66.32;;;33.53;;
77051;SDS011;65980;44.898;8.602;2022-12-29T07:13:50;62.70;;;31.95;;
77051;SDS011;65980;44.898;8.602;2022-12-29T07:16:55;69.45;;;33.63;;
77051;SDS011;65980;44.898;8.602;2022-12-29T07:20:00;68.82;;;33.33;;
77051;SDS011;65980;44.898;8.602;2022-12-29T07:23:05;66.45;;;32.60;;
77051;SDS011;65980;44.898;8.602;2022-12-29T07:26:09;70.93;;;33.72;;
77051;SDS011;65980;44.898;8.602;2022-12-29T07:29:17;64.88;;;33.17;;
77051;SDS011;65980;44.898;8.602;2022-12-29T07:32:21;72.70;;;35.67;;
77051;SDS011;65980;44.898;8.602;2022-12-29T07:35:25;64.65;;;31.30;;
77051;SDS011;65980;44.898;8.602;2022-12-29T07:38:30;73.03;;;35.25;;
77051;SDS011;65980;44.898;8.602;2022-12-29T07:41:35;65.22;;;34.20;;
77051;SDS011;65980;44.898;8.602;2022-12-29T07:44:40;79.75;;;37.47;;
77051;SDS011;65980;44.898;8.602;2022-12-29T07:47:56;78.97;;;36.65;;
77051;SDS011;65980;44.898;8.602;2022-12-29T07:51:01;73.35;;;33.67;;
77051;SDS011;65980;44.898;8.602;2022-12-29T07:54:06;69.82;;;33.40;;
77051;SDS011;65980;44.898;8.602;2022-12-29T07:57:11;69.47;;;33.65;;
77051;SDS011;65980;44.898;8.602;2022-12-29T08:00:16;68.95;;;33.20;;
77051;SDS011;65980;44.898;8.602;2022-12-29T08:03:21;62.72;;;32.15;;
77051;SDS011;65980;44.898;8.602;2022-12-29T08:10:00;63.22;;;31.67;;
77051;SDS011;65980;44.898;8.602;2022-12-29T08:13:05;67.45;;;34.15;;
77051;SDS011;65980;44.898;8.602;2022-12-29T08:16:10;64.97;;;31.65;;
77051;SDS011;65980;44.898;8.602;2022-12-29T08:19:14;60.75;;;31.00;;
77051;SDS011;65980;44.898;8.602;2022-12-29T08:22:19;69.60;;;33.70;;
77051;SDS011;65980;44.898;8.602;2022-12-29T08:25:24;69.20;;;33.53;;
77051;SDS011;65980;44.898;8.602;2022-12-29T08:28:29;66.97;;;33.97;;
77051;SDS011;65980;44.898;8.602;2022-12-29T08:31:34;68.00;;;31.00;;
77051;SDS011;65980;44.898;8.602;2022-12-29T08:34:39;63.25;;;31.27;;
77051;SDS011;65980;44.898;8.602;2022-12-29T08:37:44;64.93;;;31.17;;
77051;SDS011;65980;44.898;8.602;2022-12-29T08:40:50;64.53;;;31.05;;
77051;SDS011;65980;44.898;8.602;2022-12-29T08:43:55;69.55;;;32.80;;
77051;SDS011;65980;44.898;8.602;2022-12-29T08:47:00;62.58;;;31.92;;
77051;SDS011;65980;44.898;8.602;2022-12-29T08:50:05;60.20;;;30.33;;
77051;SDS011;65980;44.898;8.602;2022-12-29T08:53:11;64.40;;;32.47;;
77051;SDS011;65980;44.898;8.602;2022-12-29T08:56:23;66.85;;;33.47;;
77051;SDS011;65980;44.898;8.602;2022-12-29T08:59:31;65.20;;;32.78;;
77051;SDS011;65980;44.898;8.602;2022-12-29T09:02:35;61.85;;;31.90;;
77051;SDS011;65980;44.898;8.602;2022-12-29T09:05:40;60.22;;;30.65;;
77051;SDS011;65980;44.898;8.602;2022-12-29T09:08:45;59.33;;;30.92;;
77051;SDS011;65980;44.898;8.602;2022-12-29T09:11:49;53.67;;;29.58;;
77051;SDS011;65980;44.898;8.602;2022-12-29T09:14:55;59.08;;;30.27;;
77051;SDS011;65980;44.898;8.602;2022-12-29T09:18:00;55.58;;;29.90;;
77051;SDS011;65980;44.898;8.602;2022-12-29T09:21:04;56.00;;;31.10;;
77051;SDS011;65980;44.898;8.602;2022-12-29T09:24:10;53.35;;;29.35;;
77051;SDS011;65980;44.898;8.602;2022-12-29T09:30:19;54.55;;;28.30;;
77051;SDS011;65980;44.898;8.602;2022-12-29T09:33:24;58.17;;;30.75;;
77051;SDS011;65980;44.898;8.602;2022-12-29T09:36:29;55.30;;;29.45;;
77051;SDS011;65980;44.898;8.602;2022-12-29T09:39:35;52.08;;;28.05;;
77051;SDS011;65980;44.898;8.602;2022-12-29T09:46:27;56.50;;;30.40;;
77051;SDS011;65980;44.898;8.602;2022-12-29T09:49:43;52.28;;;28.35;;
77051;SDS011;65980;44.898;8.602;2022-12-29T09:52:55;55.47;;;28.52;;
77051;SDS011;65980;44.898;8.602;2022-12-29T09:56:19;55.78;;;28.85;;
77051;SDS011;65980;44.898;8.602;2022-12-29T09:59:38;54.40;;;27.63;;
77051;SDS011;65980;44.898;8.602;2022-12-29T10:02:49;51.78;;;28.55;;
77051;SDS011;65980;44.898;8.602;2022-12-29T10:09:21;54.10;;;28.42;;
77051;SDS011;65980;44.898;8.602;2022-12-29T10:15:38;51.20;;;26.48;;
77051;SDS011;65980;44.898;8.602;2022-12-29T10:19:10;58.90;;;30.05;;
77051;SDS011;65980;44.898;8.602;2022-12-29T10:26:19;55.90;;;28.58;;
77051;SDS011;65980;44.898;8.602;2022-12-29T10:29:34;50.25;;;27.95;;
77051;SDS011;65980;44.898;8.602;2022-12-29T10:33:13;51.45;;;28.73;;
77051;SDS011;65980;44.898;8.602;2022-12-29T10:36:27;51.97;;;28.02;;
77051;SDS011;65980;44.898;8.602;2022-12-29T10:42:49;58.28;;;29.05;;
77051;SDS011;65980;44.898;8.602;2022-12-29T10:45:58;56.40;;;28.98;;
77051;SDS011;65980;44.898;8.602;2022-12-29T10:49:06;62.28;;;30.35;;
77051;SDS011;65980;44.898;8.602;2022-12-29T10:55:27;56.72;;;27.38;;
77051;SDS011;65980;44.898;8.602;2022-12-29T10:58:37;54.10;;;29.67;;
77051;SDS011;65980;44.898;8.602;2022-12-29T11:01:46;53.55;;;29.00;;
77051;SDS011;65980;44.898;8.602;2022-12-29T11:05:02;53.80;;;28.17;;
77051;SDS011;65980;44.898;8.602;2022-12-29T11:08:09;57.08;;;29.73;;
77051;SDS011;65980;44.898;8.602;2022-12-29T11:11:27;50.60;;;27.02;;
77051;SDS011;65980;44.898;8.602;2022-12-29T11:14:46;49.50;;;28.65;;
77051;SDS011;65980;44.898;8.602;2022-12-29T11:17:57;51.85;;;28.90;;
77051;SDS011;65980;44.898;8.602;2022-12-29T11:21:04;51.08;;;27.65;;
77051;SDS011;65980;44.898;8.602;2022-12-29T11:27:30;49.67;;;29.05;;
77051;SDS011;65980;44.898;8.602;2022-12-29T11:30:37;57.40;;;28.77;;
77051;SDS011;65980;44.898;8.602;2022-12-29T11:33:48;52.08;;;30.50;;
77051;SDS011;65980;44.898;8.602;2022-12-29T11:36:53;52.85;;;28.85;;
77051;SDS011;65980;44.898;8.602;2022-12-29T11:40:21;53.15;;;29.40;;
77051;SDS011;65980;44.898;8.602;2022-12-29T11:43:34;59.17;;;29.63;;
77051;SDS011;65980;44.898;8.602;2022-12-29T11:50:02;55.67;;;29.23;;
77051;SDS011;65980;44.898;8.602;2022-12-29T11:53:15;53.22;;;28.55;;
77051;SDS011;65980;44.898;8.602;2022-12-29T11:56:36;52.85;;;28.05;;
77051;SDS011;65980;44.898;8.602;2022-12-29T11:59:52;53.47;;;28.25;;
77051;SDS011;65980;44.898;8.602;2022-12-29T12:03:13;44.95;;;27.42;;
77051;SDS011;65980;44.898;8.602;2022-12-29T12:10:06;58.78;;;30.40;;
77051;SDS011;65980;44.898;8.602;2022-12-29T12:13:47;54.65;;;30.40;;
77051;SDS011;65980;44.898;8.602;2022-12-29T12:17:33;58.45;;;31.65;;
77051;SDS011;65980;44.898;8.602;2022-12-29T12:20:54;56.30;;;29.15;;
77051;SDS011;65980;44.898;8.602;2022-12-29T12:27:21;60.45;;;31.63;;
77051;SDS011;65980;44.898;8.602;2022-12-29T12:30:31;56.15;;;30.42;;
77051;SDS011;65980;44.898;8.602;2022-12-29T12:33:54;54.00;;;29.98;;
77051;SDS011;65980;44.898;8.602;2022-12-29T12:47:56;58.33;;;32.30;;
77051;SDS011;65980;44.898;8.602;2022-12-29T12:52:09;53.33;;;29.95;;
77051;SDS011;65980;44.898;8.602;2022-12-29T13:09:59;59.55;;;30.48;;
77051;SDS011;65980;44.898;8.602;2022-12-29T13:23:37;55.00;;;29.58;;
77051;SDS011;65980;44.898;8.602;2022-12-29T13:26:48;56.25;;;31.08;;
77051;SDS011;65980;44.898;8.602;2022-12-29T13:30:15;61.38;;;32.10;;
77051;SDS011;65980;44.898;8.602;2022-12-29T13:36:44;58.33;;;31.83;;
77051;SDS011;65980;44.898;8.602;2022-12-29T13:39:58;60.40;;;33.15;;
77051;SDS011;65980;44.898;8.602;2022-12-29T13:46:12;53.47;;;29.88;;
77051;SDS011;65980;44.898;8.602;2022-12-29T13:49:26;58.97;;;31.90;;
77051;SDS011;65980;44.898;8.602;2022-12-29T14:08:48;55.90;;;32.42;;
77051;SDS011;65980;44.898;8.602;2022-12-29T14:12:29;55.60;;;29.42;;
77051;SDS011;65980;44.898;8.602;2022-12-29T14:19:43;61.05;;;31.83;;
77051;SDS011;65980;44.898;8.602;2022-12-29T14:23:47;53.83;;;31.02;;
77051;SDS011;65980;44.898;8.602;2022-12-29T14:33:29;56.50;;;31.10;;
77051;SDS011;65980;44.898;8.602;2022-12-29T14:36:55;53.97;;;30.75;;
77051;SDS011;65980;44.898;8.602;2022-12-29T14:52:41;59.10;;;31.55;;
77051;SDS011;65980;44.898;8.602;2022-12-29T14:56:34;56.17;;;31.60;;
77051;SDS011;65980;44.898;8.602;2022-12-29T14:59:52;63.05;;;33.05;;
77051;SDS011;65980;44.898;8.602;2022-12-29T15:07:07;58.90;;;31.17;;
77051;SDS011;65980;44.898;8.602;2022-12-29T15:10:23;59.38;;;30.98;;
77051;SDS011;65980;44.898;8.602;2022-12-29T15:13:43;59.30;;;31.20;;
77051;SDS011;65980;44.898;8.602;2022-12-29T15:17:01;58.80;;;32.20;;
77051;SDS011;65980;44.898;8.602;2022-12-29T15:20:30;56.75;;;31.27;;
77051;SDS011;65980;44.898;8.602;2022-12-29T15:24:04;59.60;;;31.73;;
77051;SDS011;65980;44.898;8.602;2022-12-29T15:27:13;60.33;;;33.15;;
77051;SDS011;65980;44.898;8.602;2022-12-29T15:31:18;62.72;;;32.47;;
77051;SDS011;65980;44.898;8.602;2022-12-29T15:34:41;62.13;;;33.17;;
77051;SDS011;65980;44.898;8.602;2022-12-29T15:37:56;65.47;;;33.85;;
77051;SDS011;65980;44.898;8.602;2022-12-29T15:45:05;59.08;;;31.23;;
77051;SDS011;65980;44.898;8.602;2022-12-29T15:48:34;61.55;;;31.73;;
77051;SDS011;65980;44.898;8.602;2022-12-29T15:51:51;63.63;;;32.55;;
77051;SDS011;65980;44.898;8.602;2022-12-29T15:54:58;54.95;;;31.80;;
77051;SDS011;65980;44.898;8.602;2022-12-29T15:58:26;58.90;;;31.80;;
77051;SDS011;65980;44.898;8.602;2022-12-29T16:01:39;60.55;;;33.25;;
77051;SDS011;65980;44.898;8.602;2022-12-29T16:12:20;58.50;;;29.75;;
77051;SDS011;65980;44.898;8.602;2022-12-29T16:15:36;54.47;;;29.85;;
77051;SDS011;65980;44.898;8.602;2022-12-29T16:18:44;49.28;;;28.45;;
77051;SDS011;65980;44.898;8.602;2022-12-29T16:22:07;53.47;;;29.73;;
77051;SDS011;65980;44.898;8.602;2022-12-29T16:25:28;49.33;;;28.27;;
77051;SDS011;65980;44.898;8.602;2022-12-29T16:28:54;52.65;;;29.33;;
77051;SDS011;65980;44.898;8.602;2022-12-29T16:32:29;52.83;;;28.95;;
77051;SDS011;65980;44.898;8.602;2022-12-29T16:35:53;52.47;;;28.30;;
77051;SDS011;65980;44.898;8.602;2022-12-29T16:57:36;60.45;;;30.80;;
77051;SDS011;65980;44.898;8.602;2022-12-29T17:00:52;76.28;;;37.92;;
77051;SDS011;65980;44.898;8.602;2022-12-29T17:04:26;59.17;;;32.97;;
77051;SDS011;65980;44.898;8.602;2022-12-29T17:07:50;61.55;;;30.38;;
77051;SDS011;65980;44.898;8.602;2022-12-29T17:11:14;64.15;;;32.47;;
77051;SDS011;65980;44.898;8.602;2022-12-29T17:15:03;63.90;;;33.17;;
77051;SDS011;65980;44.898;8.602;2022-12-29T17:18:54;62.70;;;31.80;;
77051;SDS011;65980;44.898;8.602;2022-12-29T17:22:36;58.88;;;31.63;;
77051;SDS011;65980;44.898;8.602;2022-12-29T17:25:41;56.80;;;30.63;;
77051;SDS011;65980;44.898;8.602;2022-12-29T17:33:03;54.80;;;30.17;;
77051;SDS011;65980;44.898;8.602;2022-12-29T17:40:48;54.08;;;30.92;;
77051;SDS011;65980;44.898;8.602;2022-12-29T17:44:05;60.28;;;32.50;;
77051;SDS011;65980;44.898;8.602;2022-12-29T17:47:25;66.28;;;32.60;;
77051;SDS011;65980;44.898;8.602;2022-12-29T17:54:16;52.40;;;30.30;;
77051;SDS011;65980;44.898;8.602;2022-12-29T17:57:49;56.58;;;31.48;;
77051;SDS011;65980;44.898;8.602;2022-12-29T18:00:57;67.57;;;30.83;;
77051;SDS011;65980;44.898;8.602;2022-12-29T18:08:07;53.15;;;29.60;;
77051;SDS011;65980;44.898;8.602;2022-12-29T18:19:21;48.38;;;28.08;;
77051;SDS011;65980;44.898;8.602;2022-12-29T18:22:25;52.10;;;29.30;;
77051;SDS011;65980;44.898;8.602;2022-12-29T18:29:40;51.80;;;29.10;;
77051;SDS011;65980;44.898;8.602;2022-12-29T18:36:43;55.92;;;30.25;;
77051;SDS011;65980;44.898;8.602;2022-12-29T18:40:25;54.83;;;29.83;;
77051;SDS011;65980;44.898;8.602;2022-12-29T18:44:11;53.65;;;28.83;;
77051;SDS011;65980;44.898;8.602;2022-12-29T18:47:22;54.72;;;29.90;;
77051;SDS011;65980;44.898;8.602;2022-12-29T18:50:28;58.22;;;29.13;;
77051;SDS011;65980;44.898;8.602;2022-12-29T18:57:47;47.80;;;27.73;;
77051;SDS011;65980;44.898;8.602;2022-12-29T19:00:55;55.72;;;28.95;;
77051;SDS011;65980;44.898;8.602;2022-12-29T19:04:06;54.35;;;29.52;;
77051;SDS011;65980;44.898;8.602;2022-12-29T19:07:23;60.75;;;31.58;;
77051;SDS011;65980;44.898;8.602;2022-12-29T19:10:28;60.03;;;31.77;;
77051;SDS011;65980;44.898;8.602;2022-12-29T19:13:33;56.28;;;31.13;;
77051;SDS011;65980;44.898;8.602;2022-12-29T19:20:47;57.00;;;32.50;;
77051;SDS011;65980;44.898;8.602;2022-12-29T19:24:30;67.20;;;34.72;;
77051;SDS011;65980;44.898;8.602;2022-12-29T19:32:50;65.05;;;33.47;;
77051;SDS011;65980;44.898;8.602;2022-12-29T19:39:50;60.45;;;33.97;;
77051;SDS011;65980;44.898;8.602;2022-12-29T19:43:02;59.63;;;32.83;;
77051;SDS011;65980;44.898;8.602;2022-12-29T19:46:07;55.78;;;30.88;;
77051;SDS011;65980;44.898;8.602;2022-12-29T19:54:02;52.70;;;29.60;;
77051;SDS011;65980;44.898;8.602;2022-12-29T19:57:21;56.13;;;31.05;;
77051;SDS011;65980;44.898;8.602;2022-12-29T20:04:50;54.03;;;30.30;;
77051;SDS011;65980;44.898;8.602;2022-12-29T20:19:19;62.05;;;33.42;;
77051;SDS011;65980;44.898;8.602;2022-12-29T20:22:26;61.10;;;31.73;;
77051;SDS011;65980;44.898;8.602;2022-12-29T20:25:34;55.63;;;31.88;;
77051;SDS011;65980;44.898;8.602;2022-12-29T20:28:44;69.43;;;33.53;;
77051;SDS011;65980;44.898;8.602;2022-12-29T20:32:21;54.53;;;30.95;;
77051;SDS011;65980;44.898;8.602;2022-12-29T20:36:25;53.83;;;30.75;;
77051;SDS011;65980;44.898;8.602;2022-12-29T21:05:41;57.88;;;33.67;;
77051;SDS011;65980;44.898;8.602;2022-12-29T21:16:23;61.83;;;32.90;;
77051;SDS011;65980;44.898;8.602;2022-12-29T21:19:27;59.88;;;33.65;;
77051;SDS011;65980;44.898;8.602;2022-12-29T21:22:35;63.85;;;33.58;;
77051;SDS011;65980;44.898;8.602;2022-12-29T21:25:42;66.15;;;34.75;;
77051;SDS011;65980;44.898;8.602;2022-12-29T21:32:24;68.28;;;35.40;;
77051;SDS011;65980;44.898;8.602;2022-12-29T21:36:26;65.35;;;35.30;;
77051;SDS011;65980;44.898;8.602;2022-12-29T21:39:31;62.38;;;34.67;;
77051;SDS011;65980;44.898;8.602;2022-12-29T21:48:55;71.65;;;34.45;;
77051;SDS011;65980;44.898;8.602;2022-12-29T21:52:05;63.25;;;34.15;;
77051;SDS011;65980;44.898;8.602;2022-12-29T21:55:14;70.40;;;33.45;;
77051;SDS011;65980;44.898;8.602;2022-12-29T21:58:23;59.55;;;32.22;;
77051;SDS011;65980;44.898;8.602;2022-12-29T22:02:39;56.88;;;32.05;;
77051;SDS011;65980;44.898;8.602;2022-12-29T22:06:24;63.25;;;32.55;;
77051;SDS011;65980;44.898;8.602;2022-12-29T22:09:53;65.13;;;33.92;;
77051;SDS011;65980;44.898;8.602;2022-12-29T22:14:12;67.50;;;34.92;;
77051;SDS011;65980;44.898;8.602;2022-12-29T22:21:19;63.30;;;33.35;;
77051;SDS011;65980;44.898;8.602;2022-12-29T22:24:54;59.42;;;32.50;;
77051;SDS011;65980;44.898;8.602;2022-12-29T22:28:02;57.42;;;31.55;;
77051;SDS011;65980;44.898;8.602;2022-12-29T22:34:39;59.47;;;31.70;;
77051;SDS011;65980;44.898;8.602;2022-12-29T22:41:42;66.60;;;34.38;;
77051;SDS011;65980;44.898;8.602;2022-12-29T22:44:51;70.33;;;33.83;;
77051;SDS011;65980;44.898;8.602;2022-12-29T22:48:00;61.70;;;33.28;;
77051;SDS011;65980;44.898;8.602;2022-12-29T22:54:35;72.93;;;34.17;;
77051;SDS011;65980;44.898;8.602;2022-12-29T23:01:10;68.70;;;33.03;;
77051;SDS011;65980;44.898;8.602;2022-12-29T23:04:44;61.03;;;31.77;;
77051;SDS011;65980;44.898;8.602;2022-12-29T23:08:02;68.53;;;33.33;;
77051;SDS011;65980;44.898;8.602;2022-12-29T23:11:19;63.25;;;30.85;;
77051;SDS011;65980;44.898;8.602;2022-12-29T23:18:25;58.72;;;31.48;;
77051;SDS011;65980;44.898;8.602;2022-12-29T23:21:59;61.67;;;32.50;;
77051;SDS011;65980;44.898;8.602;2022-12-29T23:29:14;67.15;;;33.42;;
77051;SDS011;65980;44.898;8.602;2022-12-29T23:33:43;73.55;;;36.55;;
77051;SDS011;65980;44.898;8.602;2022-12-29T23:44:22;64.13;;;33.53;;
77051;SDS011;65980;44.898;8.602;2022-12-29T23:47:26;67.45;;;33.08;;
77051;SDS011;65980;44.898;8.602;2022-12-29T23:54:03;69.95;;;34.85;;
77051;SDS011;65980;44.898;8.602;2022-12-29T23:57:12;67.70;;;35.13;;
